sensor_id;sensor_type;location;lat;lon;timestamp;pressure;altitude;pressure_sealevel;temperature;humidity
27425;BME280;15244;49.088;11.886;2023-12-22T00:03:21;94069.13;;;5.84;57.86
27425;BME280;15244;49.088;11.886;2023-12-22T00:08:23;94109.75;;;5.66;56.80
27425;BME280;15244;49.088;11.886;2023-12-22T00:13:29;94103.97;;;5.64;56.76
27425;BME280;15244;49.088;11.886;2023-12-22T00:18:36;94123.69;;;5.57;56.58
27425;BME280;15244;49.088;11.886;2023-12-22T00:23:40;94093.97;;;5.57;56.32
27425;BME280;15244;49.088;11.886;2023-12-22T00:28:48;94097.41;;;5.65;56.38
27425;BME280;15244;49.088;11.886;2023-12-22T00:33:50;94101.66;;;5.62;57.12
27425;BME280;15244;49.088;11.886;2023-12-22T00:38:51;94107.44;;;5.68;56.12
27425;BME280;15244;49.088;11.886;2023-12-22T00:43:53;94088.88;;;5.77;56.46
27425;BME280;15244;49.088;11.886;2023-12-22T00:48:57;94081.50;;;5.81;56.34
27425;BME280;15244;49.088;11.886;2023-12-22T00:53:59;94090.44;;;5.64;56.38
27425;BME280;15244;49.088;11.886;2023-12-22T00:59:04;94069.97;;;5.67;57.06
27425;BME280;15244;49.088;11.886;2023-12-22T01:04:12;94061.06;;;5.70;57.01
27425;BME280;15244;49.088;11.886;2023-12-22T01:09:16;94059.53;;;5.72;57.21
27425;BME280;15244;49.088;11.886;2023-12-22T01:14:22;94062.19;;;5.83;57.35
27425;BME280;15244;49.088;11.886;2023-12-22T01:19:24;94112.81;;;5.82;57.13
27425;BME280;15244;49.088;11.886;2023-12-22T01:24:28;94099.72;;;5.70;57.07
27425;BME280;15244;49.088;11.886;2023-12-22T01:29:33;94096.25;;;5.62;57.50
27425;BME280;15244;49.088;11.886;2023-12-22T01:34:34;94105.53;;;5.54;57.23
27425;BME280;15244;49.088;11.886;2023-12-22T01:39:39;94090.44;;;5.64;57.86
27425;BME280;15244;49.088;11.886;2023-12-22T01:44:41;94086.97;;;5.63;57.82
27425;BME280;15244;49.088;11.886;2023-12-22T01:49:47;94128.28;;;5.71;57.73
27425;BME280;15244;49.088;11.886;2023-12-22T01:54:54;94140.25;;;5.67;58.04
27425;BME280;15244;49.088;11.886;2023-12-22T01:59:59;94119.44;;;5.60;58.09
27425;BME280;15244;49.088;11.886;2023-12-22T02:05:00;94126.00;;;5.59;57.79
27425;BME280;15244;49.088;11.886;2023-12-22T02:10:03;94146.09;;;5.43;58.33
27425;BME280;15244;49.088;11.886;2023-12-22T02:15:10;94149.19;;;5.53;58.13
27425;BME280;15244;49.088;11.886;2023-12-22T02:20:14;94112.88;;;5.47;58.61
27425;BME280;15244;49.088;11.886;2023-12-22T02:25:16;94110.59;;;5.41;58.98
27425;BME280;15244;49.088;11.886;2023-12-22T02:35:37;94105.19;;;5.41;58.75
27425;BME280;15244;49.088;11.886;2023-12-22T02:40:46;94101.34;;;5.32;59.43
27425;BME280;15244;49.088;11.886;2023-12-22T02:45:52;94107.50;;;5.36;59.41
27425;BME280;15244;49.088;11.886;2023-12-22T02:50:55;94117.94;;;5.45;59.26
27425;BME280;15244;49.088;11.886;2023-12-22T02:55:56;94119.88;;;5.40;59.01
27425;BME280;15244;49.088;11.886;2023-12-22T03:01:03;94134.13;;;5.41;59.24
27425;BME280;15244;49.088;11.886;2023-12-22T03:06:04;94141.88;;;5.35;59.30
27425;BME280;15244;49.088;11.886;2023-12-22T03:11:08;94143.41;;;5.40;59.53
27425;BME280;15244;49.088;11.886;2023-12-22T03:16:12;94119.03;;;5.54;59.22
27425;BME280;15244;49.088;11.886;2023-12-22T03:21:20;94124.09;;;5.52;59.56
27425;BME280;15244;49.088;11.886;2023-12-22T03:26:21;94129.09;;;5.54;59.34
27425;BME280;15244;49.088;11.886;2023-12-22T03:31:25;94139.91;;;5.54;59.39
27425;BME280;15244;49.088;11.886;2023-12-22T03:36:29;94150.72;;;5.47;59.46
27425;BME280;15244;49.088;11.886;2023-12-22T03:41:33;94148.84;;;5.33;59.73
27425;BME280;15244;49.088;11.886;2023-12-22T03:46:39;94158.50;;;5.19;59.70
27425;BME280;15244;49.088;11.886;2023-12-22T03:51:43;94175.47;;;5.16;59.38
27425;BME280;15244;49.088;11.886;2023-12-22T03:56:44;94150.38;;;5.23;59.46
27425;BME280;15244;49.088;11.886;2023-12-22T04:01:52;94160.78;;;5.21;59.18
27425;BME280;15244;49.088;11.886;2023-12-22T04:06:54;94141.13;;;5.24;58.74
27425;BME280;15244;49.088;11.886;2023-12-22T04:12:01;94155.38;;;5.21;59.07
27425;BME280;15244;49.088;11.886;2023-12-22T04:17:05;94176.63;;;5.19;59.24
27425;BME280;15244;49.088;11.886;2023-12-22T04:22:07;94177.78;;;5.07;59.55
27425;BME280;15244;49.088;11.886;2023-12-22T04:27:09;94159.66;;;4.97;60.04
27425;BME280;15244;49.088;11.886;2023-12-22T04:32:20;94151.91;;;4.95;59.16
27425;BME280;15244;49.088;11.886;2023-12-22T04:37:24;94164.28;;;4.89;59.32
27425;BME280;15244;49.088;11.886;2023-12-22T04:42:31;94164.63;;;4.81;59.81
27425;BME280;15244;49.088;11.886;2023-12-22T04:47:32;94193.97;;;4.93;59.74
27425;BME280;15244;49.088;11.886;2023-12-22T04:52:34;94188.94;;;4.88;59.43
27425;BME280;15244;49.088;11.886;2023-12-22T04:57:38;94177.41;;;4.84;59.55
27425;BME280;15244;49.088;11.886;2023-12-22T05:02:42;94177.34;;;4.59;60.01
27425;BME280;15244;49.088;11.886;2023-12-22T05:07:47;94203.16;;;4.63;60.15
27425;BME280;15244;49.088;11.886;2023-12-22T05:12:53;94184.66;;;4.58;60.01
27425;BME280;15244;49.088;11.886;2023-12-22T05:18:01;94193.53;;;4.66;59.92
27425;BME280;15244;49.088;11.886;2023-12-22T05:23:02;94188.53;;;4.68;60.30
27425;BME280;15244;49.088;11.886;2023-12-22T05:28:05;94206.66;;;4.64;59.84
27425;BME280;15244;49.088;11.886;2023-12-22T05:33:07;94198.56;;;4.71;59.76
27425;BME280;15244;49.088;11.886;2023-12-22T05:38:12;94209.00;;;4.72;60.13
27425;BME280;15244;49.088;11.886;2023-12-22T05:43:20;94243.75;;;4.81;59.61
27425;BME280;15244;49.088;11.886;2023-12-22T05:48:21;94236.34;;;4.67;59.92
27425;BME280;15244;49.088;11.886;2023-12-22T05:53:23;94230.97;;;4.64;59.98
27425;BME280;15244;49.088;11.886;2023-12-22T05:58:27;94225.91;;;4.55;59.49
27425;BME280;15244;49.088;11.886;2023-12-22T06:03:30;94244.47;;;4.64;59.92
27425;BME280;15244;49.088;11.886;2023-12-22T06:08:34;94245.59;;;4.59;59.56
27425;BME280;15244;49.088;11.886;2023-12-22T06:13:36;94236.78;;;4.76;59.89
27425;BME280;15244;49.088;11.886;2023-12-22T06:18:44;94216.75;;;4.81;59.76
27425;BME280;15244;49.088;11.886;2023-12-22T06:23:48;94212.88;;;4.86;59.87
27425;BME280;15244;49.088;11.886;2023-12-22T06:28:54;94218.63;;;4.81;59.43
27425;BME280;15244;49.088;11.886;2023-12-22T06:33:59;94222.50;;;4.72;59.52
27425;BME280;15244;49.088;11.886;2023-12-22T06:39:06;94233.31;;;4.87;59.93
27425;BME280;15244;49.088;11.886;2023-12-22T06:44:11;94243.75;;;4.81;59.88
27425;BME280;15244;49.088;11.886;2023-12-22T06:49:19;94287.25;;;4.65;60.00
27425;BME280;15244;49.088;11.886;2023-12-22T06:54:27;94246.38;;;4.63;60.00
27425;BME280;15244;49.088;11.886;2023-12-22T06:59:31;94257.81;;;4.31;60.55
27425;BME280;15244;49.088;11.886;2023-12-22T07:04:36;94265.09;;;4.24;60.79
27425;BME280;15244;49.088;11.886;2023-12-22T07:09:38;94284.44;;;4.37;60.63
27425;BME280;15244;49.088;11.886;2023-12-22T07:14:46;94277.88;;;4.38;60.29
27425;BME280;15244;49.088;11.886;2023-12-22T07:19:50;94280.66;;;4.52;59.80
27425;BME280;15244;49.088;11.886;2023-12-22T07:24:55;94282.22;;;4.60;60.01
27425;BME280;15244;49.088;11.886;2023-12-22T07:30:01;94285.72;;;4.68;59.89
27425;BME280;15244;49.088;11.886;2023-12-22T07:35:11;94289.56;;;4.60;60.24
27425;BME280;15244;49.088;11.886;2023-12-22T07:40:16;94301.13;;;4.56;60.04
27425;BME280;15244;49.088;11.886;2023-12-22T07:45:18;94283.78;;;4.65;60.62
27425;BME280;15244;49.088;11.886;2023-12-22T07:50:20;94287.28;;;4.76;60.20
27425;BME280;15244;49.088;11.886;2023-12-22T07:55:25;94298.53;;;4.89;59.80
27425;BME280;15244;49.088;11.886;2023-12-22T08:00:30;94294.28;;;4.88;60.30
27425;BME280;15244;49.088;11.886;2023-12-22T08:05:31;94293.94;;;4.96;60.33
27425;BME280;15244;49.088;11.886;2023-12-22T08:10:34;94332.13;;;5.02;60.78
27425;BME280;15244;49.088;11.886;2023-12-22T08:15:38;94332.09;;;4.98;61.24
27425;BME280;15244;49.088;11.886;2023-12-22T08:20:42;94332.91;;;5.06;61.20
27425;BME280;15244;49.088;11.886;2023-12-22T08:25:49;94351.84;;;5.20;60.77
27425;BME280;15244;49.088;11.886;2023-12-22T08:30:51;94416.28;;;5.08;61.46
27425;BME280;15244;49.088;11.886;2023-12-22T08:35:57;94391.25;;;5.25;61.52
27425;BME280;15244;49.088;11.886;2023-12-22T08:41:01;94352.66;;;5.28;61.23
27425;BME280;15244;49.088;11.886;2023-12-22T08:46:06;94345.69;;;5.20;62.09
27425;BME280;15244;49.088;11.886;2023-12-22T08:51:09;94356.91;;;5.29;61.30
27425;BME280;15244;49.088;11.886;2023-12-22T08:56:11;94365.00;;;5.36;61.31
27425;BME280;15244;49.088;11.886;2023-12-22T09:01:14;94376.63;;;5.44;61.82
27425;BME280;15244;49.088;11.886;2023-12-22T09:06:24;94466.56;;;5.34;62.11
27425;BME280;15244;49.088;11.886;2023-12-22T09:11:29;94378.19;;;5.45;62.28
27425;BME280;15244;49.088;11.886;2023-12-22T09:16:30;94387.47;;;5.55;62.05
27425;BME280;15244;49.088;11.886;2023-12-22T09:21:39;94383.56;;;5.41;62.14
27425;BME280;15244;49.088;11.886;2023-12-22T09:26:41;94406.78;;;5.60;62.18
27425;BME280;15244;49.088;11.886;2023-12-22T09:31:45;94463.13;;;5.48;62.50
27425;BME280;15244;49.088;11.886;2023-12-22T09:36:49;94419.13;;;5.54;61.86
27425;BME280;15244;49.088;11.886;2023-12-22T09:41:51;94399.06;;;5.70;61.42
27425;BME280;15244;49.088;11.886;2023-12-22T09:46:55;94416.50;;;5.83;61.58
27425;BME280;15244;49.088;11.886;2023-12-22T09:52:02;94423.06;;;5.85;61.39
27425;BME280;15244;49.088;11.886;2023-12-22T09:57:11;94394.47;;;5.92;61.44
27425;BME280;15244;49.088;11.886;2023-12-22T10:02:29;94381.31;;;5.86;61.54
27425;BME280;15244;49.088;11.886;2023-12-22T10:07:35;94368.97;;;6.00;61.51
27425;BME280;15244;49.088;11.886;2023-12-22T10:12:38;94372.47;;;6.11;61.39
27425;BME280;15244;49.088;11.886;2023-12-22T10:17:43;94355.84;;;6.16;61.47
27425;BME280;15244;49.088;11.886;2023-12-22T10:22:45;94360.84;;;6.00;61.16
27425;BME280;15244;49.088;11.886;2023-12-22T10:27:47;94340.38;;;6.10;61.46
27425;BME280;15244;49.088;11.886;2023-12-22T10:32:53;94349.66;;;6.16;61.31
27425;BME280;15244;49.088;11.886;2023-12-22T10:37:58;94357.75;;;6.05;61.22
27425;BME280;15244;49.088;11.886;2023-12-22T10:43:04;94357.75;;;5.83;60.83
27425;BME280;15244;49.088;11.886;2023-12-22T10:48:06;94386.72;;;5.83;60.99
27425;BME280;15244;49.088;11.886;2023-12-22T10:53:11;94373.59;;;5.85;61.22
27425;BME280;15244;49.088;11.886;2023-12-22T10:58:16;94344.22;;;5.87;60.77
27425;BME280;15244;49.088;11.886;2023-12-22T11:03:22;94341.16;;;5.96;60.65
27425;BME280;15244;49.088;11.886;2023-12-22T11:08:26;94341.91;;;5.93;61.54
27425;BME280;15244;49.088;11.886;2023-12-22T11:13:31;94345.03;;;5.98;61.32
27425;BME280;15244;49.088;11.886;2023-12-22T11:18:34;94317.59;;;6.11;60.93
27425;BME280;15244;49.088;11.886;2023-12-22T11:23:37;94299.41;;;6.11;61.46
27425;BME280;15244;49.088;11.886;2023-12-22T11:28:40;94293.19;;;6.18;61.67
27425;BME280;15244;49.088;11.886;2023-12-22T11:33:46;94283.56;;;6.20;62.26
27425;BME280;15244;49.088;11.886;2023-12-22T11:39:04;94290.47;;;6.36;61.94
27425;BME280;15244;49.088;11.886;2023-12-22T11:44:09;94292.41;;;6.32;61.28
27425;BME280;15244;49.088;11.886;2023-12-22T11:49:11;94296.66;;;6.33;61.89
27425;BME280;15244;49.088;11.886;2023-12-22T11:54:53;94291.25;;;6.29;61.36
27425;BME280;15244;49.088;11.886;2023-12-22T11:59:57;94310.63;;;6.13;61.55
27425;BME280;15244;49.088;11.886;2023-12-22T12:04:58;94299.75;;;6.27;61.25
27425;BME280;15244;49.088;11.886;2023-12-22T12:10:08;94284.69;;;6.34;60.97
27425;BME280;15244;49.088;11.886;2023-12-22T12:15:16;94239.41;;;6.41;60.92
27425;BME280;15244;49.088;11.886;2023-12-22T12:20:21;94263.38;;;6.46;61.53
27425;BME280;15244;49.088;11.886;2023-12-22T12:25:29;94249.84;;;6.39;61.74
27425;BME280;15244;49.088;11.886;2023-12-22T12:30:40;94247.13;;;6.46;61.58
27425;BME280;15244;49.088;11.886;2023-12-22T12:35:42;94252.16;;;6.41;61.98
27425;BME280;15244;49.088;11.886;2023-12-22T12:40:56;94213.03;;;6.53;61.96
27425;BME280;15244;49.088;11.886;2023-12-22T12:46:03;94199.91;;;6.51;62.43
27425;BME280;15244;49.088;11.886;2023-12-22T12:51:06;94197.53;;;6.60;62.27
27425;BME280;15244;49.088;11.886;2023-12-22T12:56:15;94190.59;;;6.59;62.28
27425;BME280;15244;49.088;11.886;2023-12-22T13:01:17;94181.25;;;6.67;62.35
27425;BME280;15244;49.088;11.886;2023-12-22T13:06:29;94174.34;;;6.59;63.28
27425;BME280;15244;49.088;11.886;2023-12-22T13:11:33;94154.25;;;6.57;63.54
27425;BME280;15244;49.088;11.886;2023-12-22T13:16:40;94148.78;;;6.64;63.52
27425;BME280;15244;49.088;11.886;2023-12-22T13:21:42;94141.31;;;6.82;63.36
27425;BME280;15244;49.088;11.886;2023-12-22T13:26:57;94115.81;;;6.76;63.83
27425;BME280;15244;49.088;11.886;2023-12-22T13:31:59;94111.09;;;6.87;63.55
27425;BME280;15244;49.088;11.886;2023-12-22T13:37:03;94116.59;;;6.77;63.97
27425;BME280;15244;49.088;11.886;2023-12-22T13:42:05;94103.69;;;6.95;63.86
27425;BME280;15244;49.088;11.886;2023-12-22T13:47:19;94099.34;;;7.05;63.50
27425;BME280;15244;49.088;11.886;2023-12-22T13:52:28;94086.09;;;7.14;63.71
27425;BME280;15244;49.088;11.886;2023-12-22T13:57:33;94109.81;;;7.03;64.22
27425;BME280;15244;49.088;11.886;2023-12-22T14:02:35;94093.50;;;7.06;64.16
27425;BME280;15244;49.088;11.886;2023-12-22T14:07:37;94079.88;;;7.17;63.63
27425;BME280;15244;49.088;11.886;2023-12-22T14:12:39;94101.91;;;7.23;63.99
27425;BME280;15244;49.088;11.886;2023-12-22T14:17:43;94100.28;;;7.29;63.93
27425;BME280;15244;49.088;11.886;2023-12-22T14:22:49;94152.56;;;7.29;63.82
27425;BME280;15244;49.088;11.886;2023-12-22T14:27:53;94123.47;;;7.33;64.20
27425;BME280;15244;49.088;11.886;2023-12-22T14:32:58;94116.28;;;7.16;64.35
27425;BME280;15244;49.088;11.886;2023-12-22T14:38:00;94140.66;;;7.16;64.51
27425;BME280;15244;49.088;11.886;2023-12-22T14:43:01;94098.69;;;7.35;64.18
27425;BME280;15244;49.088;11.886;2023-12-22T14:48:04;94119.47;;;7.49;63.93
27425;BME280;15244;49.088;11.886;2023-12-22T14:53:08;94114.47;;;7.44;63.87
27425;BME280;15244;49.088;11.886;2023-12-22T14:58:14;94090.88;;;7.41;64.11
27425;BME280;15244;49.088;11.886;2023-12-22T15:03:17;94073.22;;;7.25;65.10
27425;BME280;15244;49.088;11.886;2023-12-22T15:08:19;94102.69;;;7.20;65.38
27425;BME280;15244;49.088;11.886;2023-12-22T15:13:20;94074.34;;;7.28;65.13
27425;BME280;15244;49.088;11.886;2023-12-22T15:18:24;94109.44;;;7.46;65.00
27425;BME280;15244;49.088;11.886;2023-12-22T15:23:31;94124.78;;;7.59;64.82
27425;BME280;15244;49.088;11.886;2023-12-22T15:28:32;94117.34;;;7.67;64.35
27425;BME280;15244;49.088;11.886;2023-12-22T15:33:39;94113.75;;;7.77;64.28
27425;BME280;15244;49.088;11.886;2023-12-22T15:38:47;94126.06;;;7.86;64.00
27425;BME280;15244;49.088;11.886;2023-12-22T15:43:49;94110.34;;;7.70;64.02
27425;BME280;15244;49.088;11.886;2023-12-22T15:48:55;94178.69;;;7.95;63.87
27425;BME280;15244;49.088;11.886;2023-12-22T15:54:02;94155.53;;;7.84;63.73
27425;BME280;15244;49.088;11.886;2023-12-22T15:59:04;94164.69;;;7.97;63.91
27425;BME280;15244;49.088;11.886;2023-12-22T16:04:08;94155.03;;;7.92;63.51
27425;BME280;15244;49.088;11.886;2023-12-22T16:09:10;94149.97;;;7.98;63.49
27425;BME280;15244;49.088;11.886;2023-12-22T16:14:11;94149.91;;;8.01;63.20
27425;BME280;15244;49.088;11.886;2023-12-22T16:19:18;94177.06;;;8.01;63.12
27425;BME280;15244;49.088;11.886;2023-12-22T16:24:21;94191.19;;;7.82;63.53
27425;BME280;15244;49.088;11.886;2023-12-22T16:29:32;94184.81;;;7.99;62.88
27425;BME280;15244;49.088;11.886;2023-12-22T16:34:33;94194.19;;;7.95;63.12
27425;BME280;15244;49.088;11.886;2023-12-22T16:39:51;94186.13;;;8.22;62.95
27425;BME280;15244;49.088;11.886;2023-12-22T16:44:58;94169.81;;;8.25;62.78
27425;BME280;15244;49.088;11.886;2023-12-22T16:50:06;94187.25;;;8.28;62.77
27425;BME280;15244;49.088;11.886;2023-12-22T16:55:08;94161.53;;;8.36;62.58
27425;BME280;15244;49.088;11.886;2023-12-22T17:00:10;94142.97;;;8.31;62.69
27425;BME280;15244;49.088;11.886;2023-12-22T17:05:14;94150.84;;;8.22;62.90
27425;BME280;15244;49.088;11.886;2023-12-22T17:10:22;94106.19;;;8.27;63.27
27425;BME280;15244;49.088;11.886;2023-12-22T17:15:23;94143.00;;;8.28;63.20
27425;BME280;15244;49.088;11.886;2023-12-22T17:20:27;94136.63;;;8.11;63.78
27425;BME280;15244;49.088;11.886;2023-12-22T17:25:29;94126.00;;;8.23;63.75
27425;BME280;15244;49.088;11.886;2023-12-22T17:30:31;94150.44;;;8.23;63.70
27425;BME280;15244;49.088;11.886;2023-12-22T17:35:35;94125.25;;;8.23;63.26
27425;BME280;15244;49.088;11.886;2023-12-22T17:40:46;94138.84;;;8.19;63.42
27425;BME280;15244;49.088;11.886;2023-12-22T17:45:49;94127.59;;;8.21;63.20
27425;BME280;15244;49.088;11.886;2023-12-22T17:50:54;94113.44;;;8.37;63.11
27425;BME280;15244;49.088;11.886;2023-12-22T17:55:58;94139.97;;;8.22;62.87
27425;BME280;15244;49.088;11.886;2023-12-22T18:01:02;94126.13;;;8.47;62.82
27425;BME280;15244;49.088;11.886;2023-12-22T18:06:06;94142.88;;;8.42;62.89
27425;BME280;15244;49.088;11.886;2023-12-22T18:11:10;94138.84;;;8.19;62.77
27425;BME280;15244;49.088;11.886;2023-12-22T18:16:15;94185.94;;;8.43;62.68
27425;BME280;15244;49.088;11.886;2023-12-22T18:21:18;94132.97;;;8.55;62.44
27425;BME280;15244;49.088;11.886;2023-12-22T18:26:20;94133.53;;;8.74;61.98
27425;BME280;15244;49.088;11.886;2023-12-22T18:31:24;94193.19;;;8.50;62.44
27425;BME280;15244;49.088;11.886;2023-12-22T18:36:26;94229.72;;;8.45;62.21
27425;BME280;15244;49.088;11.886;2023-12-22T18:41:30;94151.66;;;8.80;62.30
27425;BME280;15244;49.088;11.886;2023-12-22T18:46:39;94135.41;;;8.77;61.89
27425;BME280;15244;49.088;11.886;2023-12-22T18:51:41;94147.19;;;8.94;62.10
27425;BME280;15244;49.088;11.886;2023-12-22T18:56:45;94167.59;;;8.78;62.46
27425;BME280;15244;49.088;11.886;2023-12-22T19:01:53;94163.97;;;8.88;62.26
27425;BME280;15244;49.088;11.886;2023-12-22T19:07:15;94158.19;;;8.86;62.81
27425;BME280;15244;49.088;11.886;2023-12-22T19:12:23;94181.44;;;8.60;63.31
27425;BME280;15244;49.088;11.886;2023-12-22T19:17:27;94171.00;;;8.55;63.75
27425;BME280;15244;49.088;11.886;2023-12-22T19:22:29;94169.97;;;8.45;63.86
27425;BME280;15244;49.088;11.886;2023-12-22T19:27:31;94193.88;;;8.58;63.65
27425;BME280;15244;49.088;11.886;2023-12-22T19:32:35;94227.22;;;8.62;63.44
27425;BME280;15244;49.088;11.886;2023-12-22T19:37:40;94238.16;;;8.55;63.45
27425;BME280;15244;49.088;11.886;2023-12-22T19:42:45;94220.13;;;8.68;62.83
27425;BME280;15244;49.088;11.886;2023-12-22T19:47:49;94248.19;;;8.61;63.18
27425;BME280;15244;49.088;11.886;2023-12-22T19:52:51;94236.13;;;8.62;63.29
27425;BME280;15244;49.088;11.886;2023-12-22T19:57:54;94204.19;;;8.70;63.00
27425;BME280;15244;49.088;11.886;2023-12-22T20:03:01;94224.56;;;8.58;63.28
27425;BME280;15244;49.088;11.886;2023-12-22T20:08:03;94199.72;;;8.56;63.72
27425;BME280;15244;49.088;11.886;2023-12-22T20:13:04;94224.97;;;8.53;63.08
27425;BME280;15244;49.088;11.886;2023-12-22T20:18:07;94295.31;;;8.44;63.01
27425;BME280;15244;49.088;11.886;2023-12-22T20:23:13;94244.25;;;8.66;63.10
27425;BME280;15244;49.088;11.886;2023-12-22T20:28:17;94249.53;;;8.46;63.24
27425;BME280;15244;49.088;11.886;2023-12-22T20:33:25;94266.97;;;8.49;63.19
27425;BME280;15244;49.088;11.886;2023-12-22T20:38:30;94273.25;;;8.38;64.17
27425;BME280;15244;49.088;11.886;2023-12-22T20:43:32;94261.66;;;8.34;64.24
27425;BME280;15244;49.088;11.886;2023-12-22T20:48:37;94261.09;;;8.50;64.07
27425;BME280;15244;49.088;11.886;2023-12-22T20:53:41;94267.72;;;8.49;63.89
27425;BME280;15244;49.088;11.886;2023-12-22T20:58:42;94244.50;;;8.44;64.32
27425;BME280;15244;49.088;11.886;2023-12-22T21:03:44;94308.47;;;8.49;63.72
27425;BME280;15244;49.088;11.886;2023-12-22T21:08:46;94274.38;;;8.44;63.95
27425;BME280;15244;49.088;11.886;2023-12-22T21:13:52;94275.59;;;8.36;63.30
27425;BME280;15244;49.088;11.886;2023-12-22T21:18:55;94264.94;;;8.56;63.02
27425;BME280;15244;49.088;11.886;2023-12-22T21:23:57;94279.66;;;8.59;62.30
27425;BME280;15244;49.088;11.886;2023-12-22T21:28:59;94323.56;;;8.50;62.69
27425;BME280;15244;49.088;11.886;2023-12-22T21:34:05;94263.44;;;8.48;62.83
27425;BME280;15244;49.088;11.886;2023-12-22T21:39:07;94300.72;;;8.48;62.55
27425;BME280;15244;49.088;11.886;2023-12-22T21:44:12;94269.75;;;8.41;62.46
27425;BME280;15244;49.088;11.886;2023-12-22T21:49:24;94232.97;;;8.67;62.12
27425;BME280;15244;49.088;11.886;2023-12-22T21:54:25;94328.72;;;8.41;61.57
27425;BME280;15244;49.088;11.886;2023-12-22T21:59:32;94267.13;;;8.68;61.84
27425;BME280;15244;49.088;11.886;2023-12-22T22:04:35;94274.31;;;8.82;61.53
27425;BME280;15244;49.088;11.886;2023-12-22T22:09:37;94459.81;;;8.45;60.75
27425;BME280;15244;49.088;11.886;2023-12-22T22:14:43;94307.59;;;8.56;60.81
27425;BME280;15244;49.088;11.886;2023-12-22T22:19:48;94283.53;;;8.58;60.76
27425;BME280;15244;49.088;11.886;2023-12-22T22:24:49;94299.38;;;8.63;60.31
27425;BME280;15244;49.088;11.886;2023-12-22T22:29:53;94289.31;;;8.60;60.54
27425;BME280;15244;49.088;11.886;2023-12-22T22:34:57;94272.44;;;8.76;60.32
27425;BME280;15244;49.088;11.886;2023-12-22T22:40:01;94274.59;;;8.61;60.18
27425;BME280;15244;49.088;11.886;2023-12-22T22:45:04;94305.91;;;8.69;59.96
27425;BME280;15244;49.088;11.886;2023-12-22T22:50:06;94307.81;;;8.72;60.08
27425;BME280;15244;49.088;11.886;2023-12-22T22:55:08;94402.88;;;8.76;59.67
27425;BME280;15244;49.088;11.886;2023-12-22T23:00:15;94308.13;;;8.81;59.48
27425;BME280;15244;49.088;11.886;2023-12-22T23:05:26;94322.16;;;8.73;59.34
27425;BME280;15244;49.088;11.886;2023-12-22T23:10:33;94305.22;;;8.61;58.86
27425;BME280;15244;49.088;11.886;2023-12-22T23:15:34;94321.50;;;8.96;59.22
27425;BME280;15244;49.088;11.886;2023-12-22T23:20:36;94371.75;;;8.84;58.83
27425;BME280;15244;49.088;11.886;2023-12-22T23:25:42;94400.94;;;8.76;58.28
27425;BME280;15244;49.088;11.886;2023-12-22T23:30:48;94392.34;;;8.81;58.26
27425;BME280;15244;49.088;11.886;2023-12-22T23:35:53;94391.38;;;8.99;58.62
27425;BME280;15244;49.088;11.886;2023-12-22T23:40:54;94371.50;;;8.71;58.03
27425;BME280;15244;49.088;11.886;2023-12-22T23:45:57;94394.88;;;8.61;58.02
27425;BME280;15244;49.088;11.886;2023-12-22T23:50:59;94381.44;;;8.85;57.87
27425;BME280;15244;49.088;11.886;2023-12-22T23:56:11;94430.03;;;8.79;57.91
